createdAt,value
2023-08-25T00:00:20.858Z,100352.84
2023-08-25T00:08:32.001Z,100349.55
2023-08-25T00:10:25.049Z,100352.25
2023-08-25T00:12:18.120Z,100349.77
2023-08-25T00:14:11.195Z,100351.04
2023-08-25T00:16:05.456Z,100346.35
2023-08-25T00:17:58.713Z,100343.74
2023-08-25T00:19:53.269Z,100331.89
2023-08-25T00:21:46.731Z,100325.63
2023-08-25T00:23:39.731Z,100323.48
2023-08-25T00:25:32.839Z,100323.48
2023-08-25T00:27:26.010Z,100326.63
2023-08-25T00:29:21.700Z,100325.19
2023-08-25T00:31:15.408Z,100328.34
2023-08-25T00:33:09.030Z,100335.98
2023-08-25T00:35:02.199Z,100333.09
2023-08-25T00:36:57.082Z,100329.50
2023-08-25T00:38:50.130Z,100325.30
2023-08-25T00:40:43.490Z,100322.54
2023-08-25T00:42:36.545Z,100321.11
2023-08-25T00:44:29.693Z,100313.05
2023-08-25T00:46:22.939Z,100309.08
2023-08-25T00:48:16.208Z,100302.60
2023-08-25T00:50:10.995Z,100293.90
2023-08-25T00:52:05.934Z,100282.80
2023-08-25T00:53:59.042Z,100280.92
2023-08-25T00:55:54.192Z,100283.30
2023-08-25T00:57:47.397Z,100280.70
2023-08-25T00:59:41.273Z,100279.65
2023-08-25T01:01:36.574Z,100274.36
2023-08-25T01:03:29.826Z,100272.98
2023-08-25T01:05:23.392Z,100277.34
2023-08-25T01:07:16.439Z,100279.05
2023-08-25T01:09:10.000Z,100279.48
2023-08-25T01:11:25.172Z,100276.78
2023-08-25T01:13:24.611Z,100278.16
2023-08-25T01:15:23.929Z,100275.02
2023-08-25T01:17:29.806Z,100279.15
2023-08-25T01:19:36.809Z,100278.92
2023-08-25T01:21:32.417Z,100278.92
2023-08-25T01:23:39.293Z,100280.73
2023-08-25T01:25:32.950Z,100278.81
2023-08-25T01:27:26.717Z,100280.69
2023-08-25T01:29:19.771Z,100281.20
2023-08-25T01:31:12.982Z,100276.65
2023-08-25T01:33:06.782Z,100271.52
2023-08-25T01:35:00.047Z,100270.91
2023-08-25T01:36:55.909Z,100275.15
2023-08-25T01:38:58.328Z,100275.44
2023-08-25T01:41:06.226Z,100272.67
2023-08-25T01:42:59.789Z,100274.28
2023-08-25T01:44:54.172Z,100268.86
2023-08-25T01:46:53.109Z,100267.82
2023-08-25T01:48:48.511Z,100264.88
2023-08-25T01:50:41.920Z,100262.23
2023-08-25T01:52:36.408Z,100255.05
2023-08-25T01:54:29.704Z,100248.48
2023-08-25T01:56:23.632Z,100247.53
2023-08-25T01:58:17.956Z,100241.73
2023-08-25T02:00:11.374Z,100239.63
2023-08-25T02:02:10.365Z,100242.17
2023-08-25T02:04:03.510Z,100243.88
2023-08-25T02:05:57.814Z,100245.41
2023-08-25T02:07:51.394Z,100238.61
2023-08-25T02:09:47.272Z,100236.41
2023-08-25T02:11:40.327Z,100235.19
2023-08-25T02:13:33.475Z,100235.91
2023-08-25T02:15:26.933Z,100237.83
2023-08-25T02:17:19.984Z,100230.84
2023-08-25T02:19:13.135Z,100231.22
2023-08-25T02:21:06.189Z,100224.48
2023-08-25T02:22:59.345Z,100226.08
2023-08-25T02:24:52.396Z,100223.43
2023-08-25T02:26:45.546Z,100222.33
2023-08-25T02:28:38.612Z,100226.68
2023-08-25T02:30:32.163Z,100221.43
2023-08-25T02:32:25.334Z,100221.39
2023-08-25T02:34:20.237Z,100222.37
2023-08-25T02:36:13.667Z,100223.80
2023-08-25T02:38:07.945Z,100221.92
2023-08-25T02:40:01.005Z,100220.22
2023-08-25T02:41:54.144Z,100219.45
2023-08-25T02:43:48.641Z,100219.62
2023-08-25T02:45:42.836Z,100215.38
2023-08-25T02:47:38.440Z,100212.17
2023-08-25T02:49:31.674Z,100212.21
2023-08-25T02:51:24.738Z,100211.27
2023-08-25T02:53:17.728Z,100214.38
2023-08-25T02:55:12.671Z,100211.89
2023-08-25T02:57:05.665Z,100213.05
2023-08-25T02:58:58.873Z,100216.66
2023-08-25T03:00:51.867Z,100216.89
2023-08-25T03:02:45.543Z,100215.01
2023-08-25T03:04:38.845Z,100215.40
2023-08-25T03:06:32.021Z,100212.38
2023-08-25T03:08:25.282Z,100206.52
2023-08-25T03:10:18.623Z,100200.29
2023-08-25T03:12:11.662Z,100195.66
2023-08-25T03:14:05.225Z,100194.08
2023-08-25T03:16:01.128Z,100190.42
2023-08-25T03:17:54.917Z,100192.65
2023-08-25T03:19:50.527Z,100189.58
2023-08-25T03:21:43.574Z,100187.80
2023-08-25T03:23:37.448Z,100183.52
2023-08-25T03:25:30.603Z,100182.41
2023-08-25T03:27:23.600Z,100182.70
2023-08-25T03:29:16.902Z,100181.70
2023-08-25T03:31:10.024Z,100175.04
2023-08-25T03:33:04.887Z,100173.44
2023-08-25T03:34:58.203Z,100171.95
2023-08-25T03:36:51.971Z,100171.67
2023-08-25T03:38:45.336Z,100168.11
2023-08-25T03:40:38.597Z,100164.02
2023-08-25T03:42:31.635Z,100158.50
2023-08-25T03:44:24.789Z,100153.84
2023-08-25T03:46:17.982Z,100150.70
2023-08-25T03:48:11.348Z,100147.29
2023-08-25T03:50:06.035Z,100140.89
2023-08-25T03:51:59.961Z,100141.83
2023-08-25T03:53:52.959Z,100137.59
2023-08-25T03:55:46.062Z,100138.31
2023-08-25T03:57:39.120Z,100138.08
2023-08-25T03:59:32.881Z,100132.52
2023-08-25T04:01:25.928Z,100128.26
2023-08-25T04:03:19.067Z,100130.45
2023-08-25T04:05:12.451Z,100129.54
2023-08-25T04:07:06.732Z,100130.90
2023-08-25T04:09:00.231Z,100130.80
2023-08-25T04:10:53.744Z,100127.77
2023-08-25T04:12:46.894Z,100130.40
2023-08-25T04:14:40.052Z,100127.48
2023-08-25T04:16:33.345Z,100123.56
2023-08-25T04:18:26.769Z,100119.31
2023-08-25T04:20:20.024Z,100121.85
2023-08-25T04:22:13.119Z,100126.55
2023-08-25T04:24:06.221Z,100130.13
2023-08-25T04:26:00.502Z,100134.65
2023-08-25T04:27:55.934Z,100138.30
2023-08-25T04:29:50.501Z,100142.66
2023-08-25T04:31:44.061Z,100138.41
2023-08-25T04:33:43.112Z,100131.02
2023-08-25T04:35:38.062Z,100125.29
2023-08-25T04:37:31.820Z,100125.07
2023-08-25T04:39:24.867Z,100127.27
2023-08-25T04:41:18.013Z,100123.48
2023-08-25T04:43:11.393Z,100132.25
2023-08-25T04:45:05.698Z,100130.60
2023-08-25T04:46:58.908Z,100130.42
2023-08-25T04:48:52.165Z,100125.74
2023-08-25T04:50:45.214Z,100125.06
2023-08-25T04:52:38.361Z,100127.45
2023-08-25T04:54:32.027Z,100124.11
2023-08-25T04:56:26.412Z,100118.66
2023-08-25T04:58:19.460Z,100127.33
2023-08-25T05:00:13.034Z,100122.74
2023-08-25T05:02:06.189Z,100124.79
2023-08-25T05:03:59.588Z,100117.34
2023-08-25T05:05:53.105Z,100111.72
2023-08-25T05:07:47.432Z,100106.60
2023-08-25T05:09:40.636Z,100103.77
2023-08-25T05:11:35.425Z,100102.30
2023-08-25T05:13:29.609Z,100101.69
2023-08-25T05:15:22.653Z,100100.64
2023-08-25T05:17:15.702Z,100096.44
2023-08-25T05:19:13.770Z,100090.20
2023-08-25T05:21:07.026Z,100087.85
2023-08-25T05:23:00.179Z,100085.08
2023-08-25T05:24:53.946Z,100076.64
2023-08-25T05:26:53.858Z,100068.92
2023-08-25T05:28:47.932Z,100059.38
2023-08-25T05:30:41.339Z,100054.74
2023-08-25T05:32:34.553Z,100053.35
2023-08-25T05:35:03.230Z,100047.44
2023-08-25T05:36:56.542Z,100041.90
2023-08-25T05:38:50.769Z,100043.01
2023-08-25T05:40:43.969Z,100041.61
2023-08-25T05:42:39.020Z,100030.80
2023-08-25T05:44:32.681Z,100028.13
2023-08-25T05:46:26.013Z,100025.27
2023-08-25T05:48:19.503Z,100017.42
2023-08-25T05:50:12.659Z,100014.00
2023-08-25T05:52:06.031Z,100011.02
2023-08-25T05:53:59.164Z,100004.54
2023-08-25T05:55:52.213Z,100005.67
2023-08-25T05:57:45.270Z,100003.14
2023-08-25T05:59:38.322Z,99999.83
2023-08-25T06:01:33.300Z,99998.21
2023-08-25T06:03:27.006Z,99999.04
2023-08-25T06:05:20.340Z,99993.79
2023-08-25T06:07:13.403Z,99992.02
2023-08-25T06:09:07.048Z,99992.84
2023-08-25T06:11:01.242Z,99992.38
2023-08-25T06:12:54.438Z,99990.23
2023-08-25T06:14:47.648Z,99995.02
2023-08-25T06:16:41.103Z,99995.84
2023-08-25T06:18:34.321Z,99994.98
2023-08-25T06:20:29.374Z,99993.66
2023-08-25T06:22:24.774Z,99991.28
2023-08-25T06:24:18.533Z,99989.61
2023-08-25T06:26:12.228Z,99989.59
2023-08-25T06:28:06.403Z,99993.31
2023-08-25T06:30:00.408Z,99995.04
2023-08-25T06:31:53.964Z,99998.66
2023-08-25T06:33:47.492Z,99999.67
2023-08-25T06:35:41.155Z,99995.63
2023-08-25T06:37:35.850Z,99997.78
2023-08-25T06:39:29.303Z,100002.23
2023-08-25T06:41:23.227Z,100004.09
2023-08-25T06:43:17.208Z,100010.69
2023-08-25T06:45:11.444Z,100018.95
2023-08-25T06:47:04.834Z,100019.29
2023-08-25T06:48:58.182Z,100019.13
2023-08-25T06:50:52.065Z,100020.52
2023-08-25T06:52:45.466Z,100024.63
2023-08-25T06:54:38.925Z,100034.75
2023-08-25T06:56:32.269Z,100036.10
2023-08-25T06:58:25.315Z,100034.73
2023-08-25T07:00:19.564Z,100031.48
2023-08-25T07:02:14.892Z,100028.36
2023-08-25T07:04:08.212Z,100025.98
2023-08-25T07:06:01.954Z,100024.40
2023-08-25T07:07:55.887Z,100022.60
2023-08-25T07:09:49.601Z,100024.23
2023-08-25T07:11:44.137Z,100024.36
2023-08-25T07:13:37.293Z,100020.08
2023-08-25T07:15:32.847Z,100014.55
2023-08-25T07:17:58.010Z,100011.75
2023-08-25T07:19:55.253Z,100004.91
2023-08-25T07:21:48.305Z,99998.35
2023-08-25T07:23:42.770Z,99992.02
2023-08-25T07:25:39.320Z,99983.62
2023-08-25T07:27:32.374Z,99984.67
2023-08-25T07:29:25.437Z,99981.38
2023-08-25T07:31:18.446Z,99982.83
2023-08-25T07:33:11.648Z,99982.67
2023-08-25T07:35:05.738Z,99981.95
2023-08-25T07:36:58.853Z,99981.28
2023-08-25T07:38:51.910Z,99985.89
2023-08-25T07:40:45.059Z,99989.69
2023-08-25T07:42:38.215Z,99987.77
2023-08-25T07:44:31.268Z,99988.69
2023-08-25T07:46:24.725Z,99990.20
2023-08-25T07:48:19.581Z,99992.17
2023-08-25T07:50:12.670Z,99993.29
2023-08-25T07:52:05.817Z,99987.27
2023-08-25T07:56:33.301Z,99992.17
2023-08-25T07:58:26.617Z,99984.52
2023-08-25T08:00:20.618Z,99982.81
2023-08-25T08:02:13.783Z,99977.23
2023-08-25T08:04:09.175Z,99976.42
2023-08-25T08:06:03.094Z,99972.93
2023-08-25T08:07:57.282Z,99969.05
2023-08-25T08:09:50.738Z,99964.44
2023-08-25T08:11:44.596Z,99962.72
2023-08-25T08:13:41.211Z,99955.11
2023-08-25T08:15:34.863Z,99953.91
2023-08-25T08:17:29.606Z,99956.06
2023-08-25T08:19:22.641Z,99960.88
2023-08-25T08:21:15.747Z,99961.64
2023-08-25T08:23:10.929Z,99961.06
2023-08-25T08:25:04.720Z,99965.83
2023-08-25T08:26:58.436Z,99960.06
2023-08-25T08:28:51.740Z,99959.69
2023-08-25T08:30:48.306Z,99958.97
2023-08-25T08:32:42.705Z,99958.38
2023-08-25T08:34:36.625Z,99955.73
2023-08-25T08:36:29.682Z,99957.25
2023-08-25T08:38:22.729Z,99960.90
2023-08-25T08:40:16.501Z,99962.21
2023-08-25T08:42:10.999Z,99959.88
2023-08-25T08:44:06.385Z,99953.67
2023-08-25T08:46:00.159Z,99954.03
2023-08-25T08:47:54.271Z,99952.52
2023-08-25T08:49:47.825Z,99951.15
2023-08-25T08:51:42.475Z,99948.64
2023-08-25T08:53:35.524Z,99949.02
2023-08-25T08:55:28.787Z,99950.70
2023-08-25T08:57:23.280Z,99943.91
2023-08-25T08:59:18.570Z,99943.98
2023-08-25T09:01:12.177Z,99943.40
2023-08-25T09:03:09.893Z,99947.23
2023-08-25T09:05:03.999Z,99943.02
2023-08-25T09:06:59.272Z,99945.55
2023-08-25T09:08:54.180Z,99948.30
2023-08-25T09:10:47.149Z,99949.63
2023-08-25T09:12:40.367Z,99950.18
2023-08-25T09:14:33.393Z,99955.21
2023-08-25T09:16:26.619Z,99953.88
2023-08-25T09:18:19.829Z,99956.59
2023-08-25T09:20:14.725Z,99958.08
2023-08-25T09:22:10.640Z,99967.45
2023-08-25T09:24:06.667Z,99962.19
2023-08-25T09:26:05.381Z,99962.08
2023-08-25T09:27:59.221Z,99957.94
2023-08-25T09:30:05.310Z,99953.30
2023-08-25T09:31:59.143Z,99953.17
2023-08-25T09:33:53.415Z,99950.41
2023-08-25T09:35:46.474Z,99958.54
2023-08-25T09:37:43.141Z,99958.77
2023-08-25T09:39:42.887Z,99964.43
2023-08-25T09:41:36.331Z,99965.98
2023-08-25T09:43:34.542Z,99968.22
2023-08-25T09:45:28.517Z,99969.08
2023-08-25T09:47:21.668Z,99968.63
2023-08-25T09:49:15.553Z,99959.52
2023-08-25T09:51:09.032Z,99957.45
2023-08-25T09:53:02.635Z,99951.77
2023-08-25T09:54:56.022Z,99952.47
2023-08-25T09:56:49.524Z,99952.54
2023-08-25T09:58:43.363Z,99955.95
2023-08-25T10:00:39.854Z,99955.62
2023-08-25T10:02:33.406Z,99958.69
2023-08-25T10:04:27.008Z,99965.50
2023-08-25T10:06:20.367Z,99964.38
2023-08-25T10:08:14.136Z,99960.83
2023-08-25T10:10:07.603Z,99963.38
2023-08-25T10:12:02.087Z,99964.34
2023-08-25T10:13:57.138Z,99965.34
2023-08-25T10:15:51.512Z,99957.98
2023-08-25T10:17:47.120Z,99946.48
2023-08-25T10:19:41.860Z,99938.34
2023-08-25T10:21:35.322Z,99937.56
2023-08-25T10:23:29.338Z,99938.30
2023-08-25T10:25:22.966Z,99944.09
2023-08-25T10:27:16.520Z,99945.76
2023-08-25T10:29:09.883Z,99947.44
2023-08-25T10:31:03.441Z,99955.42
2023-08-25T10:32:57.959Z,99953.20
2023-08-25T10:34:54.615Z,99951.05
2023-08-25T10:36:49.256Z,99953.90
2023-08-25T10:38:42.300Z,99955.18
2023-08-25T10:40:42.838Z,99960.88
2023-08-25T10:42:37.013Z,99965.13
2023-08-25T10:44:30.162Z,99960.93
2023-08-25T10:46:32.371Z,99953.02
2023-08-25T10:48:36.875Z,99951.69
2023-08-25T10:50:30.724Z,99953.98
2023-08-25T10:52:24.182Z,99946.08
2023-08-25T10:54:20.954Z,99947.74
2023-08-25T10:56:18.679Z,99947.42
2023-08-25T10:58:19.096Z,99945.20
2023-08-25T11:00:24.944Z,99946.89
2023-08-25T11:02:37.107Z,99947.11
2023-08-25T11:04:31.646Z,99947.19
2023-08-25T11:06:43.632Z,99953.75
2023-08-25T11:08:36.990Z,99956.98
2023-08-25T11:10:31.673Z,99962.70
2023-08-25T11:12:26.457Z,99965.61
2023-08-25T11:14:19.818Z,99967.61
2023-08-25T11:16:13.970Z,99964.27
2023-08-25T11:18:10.486Z,99960.25
2023-08-25T11:20:04.402Z,99959.95
2023-08-25T11:21:58.578Z,99960.17
2023-08-25T11:23:51.731Z,99962.15
2023-08-25T11:25:44.774Z,99964.66
2023-08-25T11:27:39.915Z,99963.98
2023-08-25T11:29:33.433Z,99966.75
2023-08-25T11:31:26.613Z,99963.51
2023-08-25T11:33:20.016Z,99966.98
2023-08-25T11:35:13.711Z,99967.44
2023-08-25T11:37:07.087Z,99964.80
2023-08-25T11:39:00.225Z,99959.89
2023-08-25T11:40:57.013Z,99960.80
2023-08-25T11:42:50.117Z,99959.54
2023-08-25T11:44:44.312Z,99962.60
2023-08-25T11:46:37.576Z,99961.63
2023-08-25T11:48:31.723Z,99960.60
2023-08-25T11:50:25.516Z,99961.19
2023-08-25T11:52:18.748Z,99958.71
2023-08-25T11:54:11.932Z,99955.67
2023-08-25T11:56:06.185Z,99952.92
2023-08-25T11:57:59.334Z,99950.69
2023-08-25T11:59:52.798Z,99953.50
2023-08-25T12:01:47.589Z,99954.73
2023-08-25T12:03:44.252Z,99955.83
2023-08-25T12:05:38.190Z,99958.30
2023-08-25T12:07:32.884Z,99954.59
2023-08-25T12:09:26.293Z,99952.85
2023-08-25T12:11:19.395Z,99953.23
2023-08-25T12:13:12.649Z,99954.16
2023-08-25T12:15:09.184Z,99963.70
2023-08-25T12:17:03.343Z,99964.88
2023-08-25T12:18:58.045Z,99965.20
2023-08-25T12:20:52.140Z,99964.19
2023-08-25T12:22:52.349Z,99964.05
2023-08-25T12:24:48.564Z,99958.29
2023-08-25T12:26:42.332Z,99961.08
2023-08-25T12:28:35.892Z,99959.73
2023-08-25T12:30:30.977Z,99957.11
2023-08-25T12:32:24.162Z,99957.55
2023-08-25T12:34:17.194Z,99959.63
2023-08-25T12:36:10.245Z,99965.60
2023-08-25T12:38:03.608Z,99966.81
2023-08-25T12:39:56.655Z,99964.40
2023-08-25T12:41:49.715Z,99963.20
2023-08-25T12:43:42.892Z,99961.20
2023-08-25T12:45:36.009Z,99960.77
2023-08-25T12:47:29.795Z,99957.02
2023-08-25T12:49:22.929Z,99954.95
2023-08-25T12:51:17.411Z,99950.82
2023-08-25T12:53:11.192Z,99946.43
2023-08-25T12:55:19.680Z,99949.98
2023-08-25T12:57:14.073Z,99950.85
2023-08-25T12:59:07.141Z,99949.98
2023-08-25T13:01:00.220Z,99951.72
2023-08-25T13:02:54.163Z,99947.56
2023-08-25T13:04:47.709Z,99945.80
2023-08-25T13:06:40.864Z,99945.16
2023-08-25T13:08:33.969Z,99941.19
2023-08-25T13:10:28.422Z,99940.64
2023-08-25T13:12:22.164Z,99947.17
2023-08-25T13:14:15.321Z,99945.67
2023-08-25T13:16:11.839Z,99953.84
2023-08-25T13:18:05.141Z,99952.28
2023-08-25T13:19:58.256Z,99956.64
2023-08-25T13:21:51.322Z,99961.61
2023-08-25T13:23:58.236Z,99958.56
2023-08-25T13:25:58.613Z,99957.98
2023-08-25T13:27:51.766Z,99957.50
2023-08-25T13:29:44.814Z,99960.58
2023-08-25T13:31:38.232Z,99958.81
2023-08-25T13:33:32.731Z,99953.95
2023-08-25T13:35:28.472Z,99953.39
2023-08-25T13:37:21.523Z,99953.55
2023-08-25T13:39:15.496Z,99955.02
2023-08-25T13:41:08.545Z,99954.83
2023-08-25T13:43:02.519Z,99955.21
2023-08-25T13:44:55.589Z,99950.95
2023-08-25T13:46:48.720Z,99954.77
2023-08-25T13:48:41.770Z,99954.66
2023-08-25T13:50:34.822Z,99957.71
2023-08-25T13:52:28.078Z,99960.77
2023-08-25T13:54:21.715Z,99961.66
2023-08-25T13:56:15.453Z,99960.69
2023-08-25T13:58:09.105Z,99964.40
2023-08-25T14:00:06.713Z,99960.90
2023-08-25T14:02:07.564Z,99961.10
2023-08-25T14:04:00.619Z,99959.34
2023-08-25T14:05:53.807Z,99957.25
2023-08-25T14:07:57.461Z,99962.16
2023-08-25T14:09:51.680Z,99962.69
2023-08-25T14:11:49.746Z,99963.97
2023-08-25T14:13:48.067Z,99960.07
2023-08-25T14:15:41.945Z,99962.19
2023-08-25T14:17:35.643Z,99964.46
2023-08-25T14:19:28.729Z,99962.21
2023-08-25T14:21:22.136Z,99964.06
2023-08-25T14:23:15.803Z,99963.85
2023-08-25T14:25:09.121Z,99964.95
2023-08-25T14:27:18.254Z,99964.36
2023-08-25T14:29:59.873Z,99958.88
2023-08-25T14:31:56.969Z,99955.16
2023-08-25T14:33:52.481Z,99953.62
2023-08-25T14:35:48.729Z,99950.80
2023-08-25T14:37:44.724Z,99948.75
2023-08-25T14:39:39.509Z,99945.25
2023-08-25T14:41:34.303Z,99949.84
2023-08-25T14:43:28.778Z,99946.70
2023-08-25T14:45:22.734Z,99942.92
2023-08-25T14:47:16.738Z,99942.60
2023-08-25T14:49:10.877Z,99943.11
2023-08-25T14:51:05.242Z,99943.33
2023-08-25T14:52:59.213Z,99939.59
2023-08-25T14:54:53.633Z,99938.70
2023-08-25T14:56:46.752Z,99939.33
2023-08-25T14:58:40.533Z,99938.45
2023-08-25T15:00:34.416Z,99937.52
2023-08-25T15:02:27.906Z,99933.86
2023-08-25T15:04:21.106Z,99927.70
2023-08-25T15:06:14.155Z,99927.52
2023-08-25T15:08:07.406Z,99924.85
2023-08-25T15:10:00.868Z,99926.12
2023-08-25T15:11:54.020Z,99931.85
2023-08-25T15:13:47.173Z,99934.56
2023-08-25T15:15:40.234Z,99938.73
2023-08-25T15:17:33.571Z,99939.43
2023-08-25T15:19:30.343Z,99937.11
2023-08-25T15:21:23.830Z,99935.71
2023-08-25T15:23:17.239Z,99932.69
2023-08-25T15:25:10.405Z,99933.17
2023-08-25T15:27:03.549Z,99932.30
2023-08-25T15:28:56.595Z,99930.09
2023-08-25T15:30:52.089Z,99933.92
2023-08-25T15:32:45.398Z,99936.50
2023-08-25T15:34:38.923Z,99940.05
2023-08-25T15:36:32.282Z,99941.27
2023-08-25T15:38:25.380Z,99942.52
2023-08-25T15:40:19.921Z,99942.11
2023-08-25T15:42:13.019Z,99948.20
2023-08-25T15:44:06.174Z,99951.27
2023-08-25T15:45:59.480Z,99951.24
2023-08-25T15:47:52.840Z,99956.48
2023-08-25T15:49:46.310Z,99959.17
2023-08-25T15:51:39.565Z,99961.63
2023-08-25T15:53:32.887Z,99967.02
2023-08-25T15:55:25.981Z,99973.86
2023-08-25T15:57:21.115Z,99975.48
2023-08-25T15:59:16.376Z,99979.84
2023-08-25T16:01:11.099Z,99983.44
2023-08-25T16:03:04.859Z,99981.65
2023-08-25T16:04:58.380Z,99981.88
2023-08-25T16:06:51.693Z,99976.27
2023-08-25T16:08:46.276Z,99973.95
2023-08-25T16:10:40.608Z,99971.48
2023-08-25T16:12:34.063Z,99964.23
2023-08-25T16:14:28.252Z,99957.20
2023-08-25T16:16:24.717Z,99953.93
2023-08-25T16:18:18.692Z,99958.83
2023-08-25T16:20:18.787Z,99954.35
2023-08-25T16:22:13.345Z,99953.55
2023-08-25T16:24:09.139Z,99949.23
2023-08-25T16:26:04.861Z,99951.55
2023-08-25T16:27:58.131Z,99949.96
2023-08-25T16:29:51.536Z,99948.66
2023-08-25T16:31:44.960Z,99949.16
2023-08-25T16:33:38.228Z,99947.24
2023-08-25T16:35:31.604Z,99945.45
2023-08-25T16:37:24.729Z,99938.79
2023-08-25T16:39:18.940Z,99936.17
2023-08-25T16:41:13.528Z,99933.55
2023-08-25T16:43:07.471Z,99929.23
2023-08-25T16:45:01.427Z,99922.65
2023-08-25T16:46:55.779Z,99918.70
2023-08-25T16:48:50.081Z,99912.65
2023-08-25T16:50:44.308Z,99910.08
2023-08-25T16:52:38.517Z,99908.47
2023-08-25T16:54:32.639Z,99908.29
2023-08-25T16:56:26.804Z,99915.44
2023-08-25T16:58:22.200Z,99919.18
2023-08-25T17:00:22.474Z,99922.50
2023-08-25T17:02:17.593Z,99921.77
2023-08-25T17:04:12.562Z,99920.09
2023-08-25T17:06:06.954Z,99921.06
2023-08-25T17:08:02.385Z,99919.17
2023-08-25T17:09:59.643Z,99918.96
2023-08-25T17:11:53.518Z,99922.80
2023-08-25T17:14:07.222Z,99922.05
2023-08-25T17:16:30.057Z,99923.91
2023-08-25T17:18:23.956Z,99925.88
2023-08-25T17:20:20.581Z,99929.52
2023-08-25T17:22:15.016Z,99932.49
2023-08-25T17:24:09.096Z,99935.53
2023-08-25T17:26:02.164Z,99933.50
2023-08-25T17:27:55.836Z,99933.21
2023-08-25T17:29:48.831Z,99934.79
2023-08-25T17:31:42.085Z,99932.77
2023-08-25T17:33:36.904Z,99929.29
2023-08-25T17:35:30.799Z,99930.38
2023-08-25T17:37:25.350Z,99929.37
2023-08-25T17:39:18.493Z,99931.58
2023-08-25T17:41:12.175Z,99935.05
2023-08-25T17:43:05.262Z,99935.35
2023-08-25T17:44:58.780Z,99941.85
2023-08-25T17:46:52.023Z,99948.33
2023-08-25T17:48:45.377Z,99950.35
2023-08-25T17:50:39.311Z,99952.88
2023-08-25T17:52:32.607Z,99951.39
2023-08-25T17:54:25.915Z,99952.67
2023-08-25T17:56:19.036Z,99948.98
2023-08-25T17:58:12.172Z,99950.40
2023-08-25T18:00:06.620Z,99956.77
2023-08-25T18:02:06.631Z,99957.92
2023-08-25T18:03:59.891Z,99953.77
2023-08-25T18:05:53.073Z,99950.36
2023-08-25T18:07:46.227Z,99947.92
2023-08-25T18:09:40.045Z,99952.12
2023-08-25T18:11:37.452Z,99953.09
2023-08-25T18:13:32.107Z,99949.50
2023-08-25T18:15:25.251Z,99945.67
2023-08-25T18:17:18.340Z,99945.00
2023-08-25T18:19:12.038Z,99949.83
2023-08-25T18:21:06.808Z,99948.88
2023-08-25T18:22:59.847Z,99947.98
2023-08-25T18:24:52.900Z,99947.79
2023-08-25T18:26:45.947Z,99950.02
2023-08-25T18:28:39.008Z,99951.69
2023-08-25T18:30:32.053Z,99951.84
2023-08-25T18:32:25.222Z,99952.91
2023-08-25T18:34:18.461Z,99957.89
2023-08-25T18:36:14.374Z,99956.80
2023-08-25T18:38:07.840Z,99956.10
2023-08-25T18:40:00.998Z,99951.67
2023-08-25T18:41:54.149Z,99951.29
2023-08-25T18:43:49.252Z,99946.87
2023-08-25T18:45:42.454Z,99944.98
2023-08-25T18:47:35.679Z,99944.43
2023-08-25T18:49:28.803Z,99942.44
2023-08-25T18:51:23.327Z,99939.61
2023-08-25T18:53:18.813Z,99940.17
2023-08-25T18:55:12.163Z,99938.39
2023-08-25T18:57:06.390Z,99943.55
2023-08-25T18:58:59.485Z,99944.53
2023-08-25T19:00:52.681Z,99942.44
2023-08-25T19:02:45.928Z,99940.98
2023-08-25T19:04:39.466Z,99938.96
2023-08-25T19:06:32.909Z,99938.54
2023-08-25T19:08:26.197Z,99939.64
2023-08-25T19:10:22.357Z,99942.25
2023-08-25T19:12:15.551Z,99937.73
2023-08-25T19:14:08.708Z,99937.23
2023-08-25T19:16:02.954Z,99935.61
2023-08-25T19:17:56.291Z,99937.09
2023-08-25T19:19:49.347Z,99940.00
2023-08-25T19:21:42.570Z,99938.70
2023-08-25T19:23:35.841Z,99941.52
2023-08-25T19:25:28.952Z,99947.02
2023-08-25T19:27:22.022Z,99953.05
2023-08-25T19:29:16.664Z,99948.83
2023-08-25T19:31:14.557Z,99950.27
2023-08-25T19:33:09.527Z,99957.09
2023-08-25T19:35:04.955Z,99956.38
2023-08-25T19:37:04.829Z,99959.48
2023-08-25T19:39:05.299Z,99955.06
2023-08-25T19:40:58.341Z,99959.38
2023-08-25T19:42:51.450Z,99960.13
2023-08-25T19:44:44.817Z,99956.47
2023-08-25T19:46:38.860Z,99964.81
2023-08-25T19:48:34.070Z,99964.66
2023-08-25T19:50:27.385Z,99972.08
2023-08-25T19:52:20.541Z,99968.34
2023-08-25T19:54:13.795Z,99971.34
2023-08-25T19:56:07.088Z,99971.83
2023-08-25T19:58:00.202Z,99969.40
2023-08-25T19:59:57.925Z,99977.02
2023-08-25T20:01:52.241Z,99982.81
2023-08-25T20:03:45.720Z,99983.27
2023-08-25T20:05:57.850Z,99983.59
2023-08-25T20:07:50.950Z,99976.02
2023-08-25T20:09:44.363Z,99976.38
2023-08-25T20:11:37.873Z,99981.02
2023-08-25T20:13:31.744Z,99980.13
2023-08-25T20:15:24.743Z,99985.38
2023-08-25T20:17:17.948Z,99991.42
2023-08-25T20:19:10.966Z,99993.23
2023-08-25T20:21:04.943Z,99988.53
2023-08-25T20:22:58.038Z,99985.05
2023-08-25T20:24:51.179Z,99983.32
2023-08-25T20:26:44.632Z,99980.30
2023-08-25T20:28:39.232Z,99985.73
2023-08-25T20:30:32.576Z,99984.01
2023-08-25T20:32:25.635Z,99982.95
2023-08-25T20:34:18.783Z,99986.31
2023-08-25T20:36:11.847Z,99992.45
2023-08-25T20:38:05.498Z,99996.40
2023-08-25T20:39:58.543Z,100000.28
2023-08-25T20:41:52.109Z,99998.36
2023-08-25T20:43:46.286Z,100004.41
2023-08-25T20:45:40.788Z,100009.05
2023-08-25T20:47:34.065Z,100010.03
2023-08-25T20:49:27.078Z,100009.23
2023-08-25T20:51:22.200Z,100011.35
2023-08-25T20:53:15.274Z,100015.10
2023-08-25T20:55:09.405Z,100012.09
2023-08-25T20:57:05.344Z,100008.42
2023-08-25T20:58:58.682Z,100010.02
2023-08-25T21:00:52.344Z,100005.55
2023-08-25T21:02:48.008Z,100003.08
2023-08-25T21:04:41.623Z,100004.23
2023-08-25T21:06:35.293Z,100004.56
2023-08-25T21:08:28.848Z,100003.52
2023-08-25T21:10:22.108Z,100004.61
2023-08-25T21:12:15.256Z,100002.81
2023-08-25T21:14:08.968Z,100002.17
2023-08-25T21:16:05.678Z,100000.77
2023-08-25T21:17:58.862Z,100000.95
2023-08-25T21:19:51.968Z,99999.33
2023-08-25T21:21:45.091Z,100002.54
2023-08-25T21:23:38.220Z,100006.91
2023-08-25T21:25:31.937Z,100005.42
2023-08-25T21:27:25.192Z,100003.70
2023-08-25T21:29:18.350Z,100006.16
2023-08-25T21:31:11.519Z,100006.22
2023-08-25T21:33:05.003Z,100002.23
2023-08-25T21:34:59.444Z,99994.48
2023-08-25T21:36:52.460Z,99985.24
2023-08-25T21:38:45.668Z,99984.15
2023-08-25T21:41:34.028Z,99983.27
2023-08-25T21:43:28.782Z,99985.55
2023-08-25T21:45:23.114Z,99991.34
2023-08-25T21:47:17.092Z,99997.57
2023-08-25T21:49:45.672Z,99986.02
2023-08-25T21:51:56.196Z,99980.18
2023-08-25T21:53:52.639Z,99975.55
2023-08-25T21:55:49.410Z,99970.00
2023-08-25T21:59:53.024Z,99968.40
2023-08-25T22:01:46.684Z,99965.56
2023-08-25T22:03:39.901Z,99962.67
2023-08-25T22:05:33.140Z,99967.46
2023-08-25T22:07:27.003Z,99964.88
2023-08-25T22:09:20.379Z,99967.60
2023-08-25T22:14:14.484Z,99944.89
2023-08-25T22:16:08.317Z,99935.14
2023-08-25T22:18:02.205Z,99930.13
2023-08-25T22:20:05.576Z,99923.66
2023-08-25T22:22:00.668Z,99915.67
2023-08-25T22:23:54.301Z,99909.64
2023-08-25T22:25:48.020Z,99907.64
2023-08-25T22:27:41.026Z,99908.70